sensor_id;sensor_type;location;lat;lon;timestamp;temperature;humidity
38788;DHT22;24536;45.488;12.238;2023-04-06T00:01:37;11.10;40.40
38788;DHT22;24536;45.488;12.238;2023-04-06T00:04:02;11.10;40.60
38788;DHT22;24536;45.488;12.238;2023-04-06T00:06:28;11.10;41.20
38788;DHT22;24536;45.488;12.238;2023-04-06T00:08:55;11.10;41.60
38788;DHT22;24536;45.488;12.238;2023-04-06T00:11:21;11.10;41.40
38788;DHT22;24536;45.488;12.238;2023-04-06T00:13:47;11.20;41.00
38788;DHT22;24536;45.488;12.238;2023-04-06T00:16:12;11.10;40.80
38788;DHT22;24536;45.488;12.238;2023-04-06T00:18:39;11.20;40.60
38788;DHT22;24536;45.488;12.238;2023-04-06T00:21:05;11.20;40.20
38788;DHT22;24536;45.488;12.238;2023-04-06T00:23:31;11.20;40.10
38788;DHT22;24536;45.488;12.238;2023-04-06T00:25:56;11.20;40.00
38788;DHT22;24536;45.488;12.238;2023-04-06T00:28:22;11.20;40.00
38788;DHT22;24536;45.488;12.238;2023-04-06T00:30:52;11.20;39.90
38788;DHT22;24536;45.488;12.238;2023-04-06T00:33:19;11.20;40.10
38788;DHT22;24536;45.488;12.238;2023-04-06T00:35:45;11.10;40.00
38788;DHT22;24536;45.488;12.238;2023-04-06T00:38:12;11.10;39.90
38788;DHT22;24536;45.488;12.238;2023-04-06T00:40:38;11.20;40.00
38788;DHT22;24536;45.488;12.238;2023-04-06T00:43:05;11.10;40.10
38788;DHT22;24536;45.488;12.238;2023-04-06T00:45:32;11.10;40.10
38788;DHT22;24536;45.488;12.238;2023-04-06T00:47:58;11.10;40.10
38788;DHT22;24536;45.488;12.238;2023-04-06T00:50:24;11.10;40.00
38788;DHT22;24536;45.488;12.238;2023-04-06T00:52:50;11.10;40.00
38788;DHT22;24536;45.488;12.238;2023-04-06T00:55:16;11.10;40.00
38788;DHT22;24536;45.488;12.238;2023-04-06T00:57:42;11.10;40.10
38788;DHT22;24536;45.488;12.238;2023-04-06T01:00:08;11.10;40.20
38788;DHT22;24536;45.488;12.238;2023-04-06T01:02:35;11.10;39.80
38788;DHT22;24536;45.488;12.238;2023-04-06T01:05:01;11.10;39.80
38788;DHT22;24536;45.488;12.238;2023-04-06T01:07:27;11.10;40.10
38788;DHT22;24536;45.488;12.238;2023-04-06T01:09:53;11.10;40.00
38788;DHT22;24536;45.488;12.238;2023-04-06T01:12:19;11.00;40.20
38788;DHT22;24536;45.488;12.238;2023-04-06T01:14:45;10.90;40.10
38788;DHT22;24536;45.488;12.238;2023-04-06T01:17:11;10.90;40.50
38788;DHT22;24536;45.488;12.238;2023-04-06T01:19:37;10.80;40.40
38788;DHT22;24536;45.488;12.238;2023-04-06T01:22:03;10.80;40.40
38788;DHT22;24536;45.488;12.238;2023-04-06T01:24:28;10.70;40.40
38788;DHT22;24536;45.488;12.238;2023-04-06T01:26:54;10.70;40.70
38788;DHT22;24536;45.488;12.238;2023-04-06T01:29:22;10.60;40.80
38788;DHT22;24536;45.488;12.238;2023-04-06T01:31:47;10.60;41.00
38788;DHT22;24536;45.488;12.238;2023-04-06T01:34:13;10.50;41.00
38788;DHT22;24536;45.488;12.238;2023-04-06T01:36:39;10.50;41.00
38788;DHT22;24536;45.488;12.238;2023-04-06T01:39:04;10.40;41.10
38788;DHT22;24536;45.488;12.238;2023-04-06T01:41:30;10.40;41.30
38788;DHT22;24536;45.488;12.238;2023-04-06T01:43:56;10.40;41.70
38788;DHT22;24536;45.488;12.238;2023-04-06T01:46:22;10.40;41.80
38788;DHT22;24536;45.488;12.238;2023-04-06T01:53:40;10.50;42.10
38788;DHT22;24536;45.488;12.238;2023-04-06T01:56:06;10.40;42.10
38788;DHT22;24536;45.488;12.238;2023-04-06T01:58:32;10.40;42.60
38788;DHT22;24536;45.488;12.238;2023-04-06T02:00:58;10.40;42.50
38788;DHT22;24536;45.488;12.238;2023-04-06T02:03:23;10.40;42.50
38788;DHT22;24536;45.488;12.238;2023-04-06T02:05:49;10.30;42.40
38788;DHT22;24536;45.488;12.238;2023-04-06T02:08:15;10.30;42.40
38788;DHT22;24536;45.488;12.238;2023-04-06T02:10:41;10.30;42.50
38788;DHT22;24536;45.488;12.238;2023-04-06T02:13:06;10.30;42.50
38788;DHT22;24536;45.488;12.238;2023-04-06T02:15:32;10.30;42.70
38788;DHT22;24536;45.488;12.238;2023-04-06T02:20:25;10.30;42.80
38788;DHT22;24536;45.488;12.238;2023-04-06T02:22:50;10.30;43.20
38788;DHT22;24536;45.488;12.238;2023-04-06T02:25:16;10.30;42.90
38788;DHT22;24536;45.488;12.238;2023-04-06T02:30:08;10.40;43.10
38788;DHT22;24536;45.488;12.238;2023-04-06T02:32:34;10.40;43.00
38788;DHT22;24536;45.488;12.238;2023-04-06T02:35:00;10.30;43.10
38788;DHT22;24536;45.488;12.238;2023-04-06T02:37:26;10.30;43.30
38788;DHT22;24536;45.488;12.238;2023-04-06T02:39:51;10.30;43.30
38788;DHT22;24536;45.488;12.238;2023-04-06T02:42:17;10.30;43.40
38788;DHT22;24536;45.488;12.238;2023-04-06T02:44:43;10.30;43.50
38788;DHT22;24536;45.488;12.238;2023-04-06T02:47:09;10.40;43.60
38788;DHT22;24536;45.488;12.238;2023-04-06T02:49:36;10.40;43.70
38788;DHT22;24536;45.488;12.238;2023-04-06T02:52:02;10.40;44.00
38788;DHT22;24536;45.488;12.238;2023-04-06T02:54:28;10.40;44.20
38788;DHT22;24536;45.488;12.238;2023-04-06T02:56:54;10.30;44.20
38788;DHT22;24536;45.488;12.238;2023-04-06T02:59:19;10.30;44.70
38788;DHT22;24536;45.488;12.238;2023-04-06T03:01:45;10.30;44.50
38788;DHT22;24536;45.488;12.238;2023-04-06T03:04:13;10.30;44.80
38788;DHT22;24536;45.488;12.238;2023-04-06T03:06:39;10.30;44.90
38788;DHT22;24536;45.488;12.238;2023-04-06T03:09:06;10.30;45.00
38788;DHT22;24536;45.488;12.238;2023-04-06T03:11:31;10.20;45.10
38788;DHT22;24536;45.488;12.238;2023-04-06T03:13:57;10.20;45.30
38788;DHT22;24536;45.488;12.238;2023-04-06T03:16:23;10.30;45.30
38788;DHT22;24536;45.488;12.238;2023-04-06T03:18:48;10.20;45.60
38788;DHT22;24536;45.488;12.238;2023-04-06T03:21:14;10.20;45.80
38788;DHT22;24536;45.488;12.238;2023-04-06T03:23:44;10.10;45.70
38788;DHT22;24536;45.488;12.238;2023-04-06T03:26:10;10.00;45.60
38788;DHT22;24536;45.488;12.238;2023-04-06T03:28:36;9.90;45.90
38788;DHT22;24536;45.488;12.238;2023-04-06T03:31:01;9.80;45.90
38788;DHT22;24536;45.488;12.238;2023-04-06T03:33:27;9.80;46.30
38788;DHT22;24536;45.488;12.238;2023-04-06T03:38:19;9.70;46.30
38788;DHT22;24536;45.488;12.238;2023-04-06T03:40:45;9.60;46.10
38788;DHT22;24536;45.488;12.238;2023-04-06T03:43:11;9.70;46.20
38788;DHT22;24536;45.488;12.238;2023-04-06T03:45:37;9.70;45.90
38788;DHT22;24536;45.488;12.238;2023-04-06T03:48:03;9.70;45.90
38788;DHT22;24536;45.488;12.238;2023-04-06T03:50:29;9.70;45.60
38788;DHT22;24536;45.488;12.238;2023-04-06T03:52:54;9.70;45.50
38788;DHT22;24536;45.488;12.238;2023-04-06T03:55:20;9.60;45.60
38788;DHT22;24536;45.488;12.238;2023-04-06T03:57:46;9.70;45.60
38788;DHT22;24536;45.488;12.238;2023-04-06T04:07:31;9.60;45.80
38788;DHT22;24536;45.488;12.238;2023-04-06T04:09:56;9.60;45.80
38788;DHT22;24536;45.488;12.238;2023-04-06T04:12:22;9.50;45.90
38788;DHT22;24536;45.488;12.238;2023-04-06T04:14:47;9.50;45.90
38788;DHT22;24536;45.488;12.238;2023-04-06T04:17:13;9.50;45.90
38788;DHT22;24536;45.488;12.238;2023-04-06T04:19:39;9.50;46.40
38788;DHT22;24536;45.488;12.238;2023-04-06T04:22:05;9.50;46.00
38788;DHT22;24536;45.488;12.238;2023-04-06T04:24:32;9.50;46.10
38788;DHT22;24536;45.488;12.238;2023-04-06T04:26:57;9.40;45.80
38788;DHT22;24536;45.488;12.238;2023-04-06T04:29:23;9.40;45.90
38788;DHT22;24536;45.488;12.238;2023-04-06T04:31:49;9.50;45.90
38788;DHT22;24536;45.488;12.238;2023-04-06T04:34:15;9.50;45.90
38788;DHT22;24536;45.488;12.238;2023-04-06T04:36:41;9.60;45.90
38788;DHT22;24536;45.488;12.238;2023-04-06T04:39:10;9.60;45.70
38788;DHT22;24536;45.488;12.238;2023-04-06T04:41:36;9.60;45.80
38788;DHT22;24536;45.488;12.238;2023-04-06T04:44:02;9.60;45.70
38788;DHT22;24536;45.488;12.238;2023-04-06T04:46:27;9.70;45.80
38788;DHT22;24536;45.488;12.238;2023-04-06T04:48:53;9.70;45.80
38788;DHT22;24536;45.488;12.238;2023-04-06T04:51:19;9.70;45.60
38788;DHT22;24536;45.488;12.238;2023-04-06T04:53:47;9.60;45.50
38788;DHT22;24536;45.488;12.238;2023-04-06T04:56:13;9.70;45.30
38788;DHT22;24536;45.488;12.238;2023-04-06T04:58:38;9.70;45.20
38788;DHT22;24536;45.488;12.238;2023-04-06T05:01:04;9.70;45.20
38788;DHT22;24536;45.488;12.238;2023-04-06T05:03:33;9.70;45.20
38788;DHT22;24536;45.488;12.238;2023-04-06T05:05:58;9.70;45.10
38788;DHT22;24536;45.488;12.238;2023-04-06T05:08:24;9.70;45.60
38788;DHT22;24536;45.488;12.238;2023-04-06T05:10:50;9.70;45.60
38788;DHT22;24536;45.488;12.238;2023-04-06T05:13:16;9.70;45.60
38788;DHT22;24536;45.488;12.238;2023-04-06T05:15:42;9.70;45.50
38788;DHT22;24536;45.488;12.238;2023-04-06T05:18:08;9.70;45.50
38788;DHT22;24536;45.488;12.238;2023-04-06T05:20:34;9.70;45.20
38788;DHT22;24536;45.488;12.238;2023-04-06T05:23:00;9.80;45.70
38788;DHT22;24536;45.488;12.238;2023-04-06T05:25:26;9.80;45.30
38788;DHT22;24536;45.488;12.238;2023-04-06T05:27:53;9.70;45.70
38788;DHT22;24536;45.488;12.238;2023-04-06T05:30:19;9.80;45.30
38788;DHT22;24536;45.488;12.238;2023-04-06T05:32:45;9.80;45.40
38788;DHT22;24536;45.488;12.238;2023-04-06T05:35:11;9.70;45.30
38788;DHT22;24536;45.488;12.238;2023-04-06T05:37:38;9.80;45.80
38788;DHT22;24536;45.488;12.238;2023-04-06T05:40:04;9.80;45.60
38788;DHT22;24536;45.488;12.238;2023-04-06T05:42:41;9.80;45.70
38788;DHT22;24536;45.488;12.238;2023-04-06T05:45:11;9.80;45.60
38788;DHT22;24536;45.488;12.238;2023-04-06T05:47:42;9.80;45.90
38788;DHT22;24536;45.488;12.238;2023-04-06T05:50:09;9.90;45.60
38788;DHT22;24536;45.488;12.238;2023-04-06T05:52:35;9.90;46.00
38788;DHT22;24536;45.488;12.238;2023-04-06T05:55:00;9.80;45.70
38788;DHT22;24536;45.488;12.238;2023-04-06T05:57:26;9.80;46.10
38788;DHT22;24536;45.488;12.238;2023-04-06T05:59:52;9.90;46.20
38788;DHT22;24536;45.488;12.238;2023-04-06T06:02:17;9.90;46.40
38788;DHT22;24536;45.488;12.238;2023-04-06T06:04:43;9.90;46.40
38788;DHT22;24536;45.488;12.238;2023-04-06T06:07:09;10.00;46.30
38788;DHT22;24536;45.488;12.238;2023-04-06T06:09:36;10.00;46.10
38788;DHT22;24536;45.488;12.238;2023-04-06T06:12:02;10.00;46.50
38788;DHT22;24536;45.488;12.238;2023-04-06T06:14:27;10.00;46.60
38788;DHT22;24536;45.488;12.238;2023-04-06T06:16:56;10.10;46.30
38788;DHT22;24536;45.488;12.238;2023-04-06T06:21:48;10.20;46.10
38788;DHT22;24536;45.488;12.238;2023-04-06T06:24:13;10.20;46.10
38788;DHT22;24536;45.488;12.238;2023-04-06T06:26:39;10.20;46.30
38788;DHT22;24536;45.488;12.238;2023-04-06T06:29:07;10.30;46.60
38788;DHT22;24536;45.488;12.238;2023-04-06T06:34:00;10.30;46.40
38788;DHT22;24536;45.488;12.238;2023-04-06T06:36:27;10.30;46.80
38788;DHT22;24536;45.488;12.238;2023-04-06T06:38:53;10.40;46.70
38788;DHT22;24536;45.488;12.238;2023-04-06T06:41:18;10.40;46.70
38788;DHT22;24536;45.488;12.238;2023-04-06T06:43:44;10.50;46.20
38788;DHT22;24536;45.488;12.238;2023-04-06T06:46:10;10.40;46.50
38788;DHT22;24536;45.488;12.238;2023-04-06T06:48:36;10.50;46.20
38788;DHT22;24536;45.488;12.238;2023-04-06T06:51:02;10.60;45.50
38788;DHT22;24536;45.488;12.238;2023-04-06T06:55:54;10.70;45.40
38788;DHT22;24536;45.488;12.238;2023-04-06T06:58:19;10.70;45.80
38788;DHT22;24536;45.488;12.238;2023-04-06T07:00:46;10.80;45.60
38788;DHT22;24536;45.488;12.238;2023-04-06T07:03:12;10.90;45.50
38788;DHT22;24536;45.488;12.238;2023-04-06T07:05:37;11.10;48.30
38788;DHT22;24536;45.488;12.238;2023-04-06T07:08:03;11.20;48.40
38788;DHT22;24536;45.488;12.238;2023-04-06T07:10:30;11.20;47.00
38788;DHT22;24536;45.488;12.238;2023-04-06T07:12:55;11.30;46.60
38788;DHT22;24536;45.488;12.238;2023-04-06T07:15:21;11.30;46.20
38788;DHT22;24536;45.488;12.238;2023-04-06T07:17:47;11.30;46.40
38788;DHT22;24536;45.488;12.238;2023-04-06T07:20:13;11.40;46.60
38788;DHT22;24536;45.488;12.238;2023-04-06T07:22:40;11.40;47.00
38788;DHT22;24536;45.488;12.238;2023-04-06T07:25:06;11.50;46.70
38788;DHT22;24536;45.488;12.238;2023-04-06T07:27:31;11.50;47.10
38788;DHT22;24536;45.488;12.238;2023-04-06T07:29:57;11.60;46.90
38788;DHT22;24536;45.488;12.238;2023-04-06T07:32:23;11.60;47.70
38788;DHT22;24536;45.488;12.238;2023-04-06T07:34:49;11.70;47.60
38788;DHT22;24536;45.488;12.238;2023-04-06T07:37:15;11.80;47.70
38788;DHT22;24536;45.488;12.238;2023-04-06T07:39:41;11.90;48.10
38788;DHT22;24536;45.488;12.238;2023-04-06T07:42:06;12.00;47.70
38788;DHT22;24536;45.488;12.238;2023-04-06T07:44:32;12.00;48.20
38788;DHT22;24536;45.488;12.238;2023-04-06T07:46:58;12.00;48.30
38788;DHT22;24536;45.488;12.238;2023-04-06T07:49:24;12.10;47.90
38788;DHT22;24536;45.488;12.238;2023-04-06T07:51:49;12.20;48.80
38788;DHT22;24536;45.488;12.238;2023-04-06T07:54:15;12.20;48.50
38788;DHT22;24536;45.488;12.238;2023-04-06T07:56:41;12.30;48.80
38788;DHT22;24536;45.488;12.238;2023-04-06T07:59:06;12.50;48.00
38788;DHT22;24536;45.488;12.238;2023-04-06T08:01:32;12.40;47.90
38788;DHT22;24536;45.488;12.238;2023-04-06T08:03:58;12.60;48.50
38788;DHT22;24536;45.488;12.238;2023-04-06T08:06:24;12.60;47.80
38788;DHT22;24536;45.488;12.238;2023-04-06T08:08:50;12.70;47.80
38788;DHT22;24536;45.488;12.238;2023-04-06T08:11:16;12.70;48.10
38788;DHT22;24536;45.488;12.238;2023-04-06T08:13:42;12.70;48.10
38788;DHT22;24536;45.488;12.238;2023-04-06T08:18:33;12.80;47.40
38788;DHT22;24536;45.488;12.238;2023-04-06T08:20:59;12.80;48.00
38788;DHT22;24536;45.488;12.238;2023-04-06T08:23:25;13.00;48.40
38788;DHT22;24536;45.488;12.238;2023-04-06T08:25:51;13.10;47.30
38788;DHT22;24536;45.488;12.238;2023-04-06T08:28:20;13.20;47.10
38788;DHT22;24536;45.488;12.238;2023-04-06T08:30:45;13.30;46.70
38788;DHT22;24536;45.488;12.238;2023-04-06T08:33:11;13.30;46.90
38788;DHT22;24536;45.488;12.238;2023-04-06T08:35:37;13.40;46.10
38788;DHT22;24536;45.488;12.238;2023-04-06T08:38:03;13.40;46.50
38788;DHT22;24536;45.488;12.238;2023-04-06T08:40:28;13.50;46.20
38788;DHT22;24536;45.488;12.238;2023-04-06T08:42:56;13.60;46.00
38788;DHT22;24536;45.488;12.238;2023-04-06T08:45:23;13.70;45.80
38788;DHT22;24536;45.488;12.238;2023-04-06T08:47:50;13.80;45.50
38788;DHT22;24536;45.488;12.238;2023-04-06T08:50:17;13.80;46.00
38788;DHT22;24536;45.488;12.238;2023-04-06T08:55:10;14.10;45.90
38788;DHT22;24536;45.488;12.238;2023-04-06T08:57:36;14.30;46.20
38788;DHT22;24536;45.488;12.238;2023-04-06T09:00:03;14.40;46.10
38788;DHT22;24536;45.488;12.238;2023-04-06T09:02:29;14.60;45.90
38788;DHT22;24536;45.488;12.238;2023-04-06T09:04:56;14.70;44.60
38788;DHT22;24536;45.488;12.238;2023-04-06T09:07:22;14.80;45.20
38788;DHT22;24536;45.488;12.238;2023-04-06T09:09:48;14.90;45.20
38788;DHT22;24536;45.488;12.238;2023-04-06T09:12:28;15.00;44.20
38788;DHT22;24536;45.488;12.238;2023-04-06T09:14:54;15.10;44.00
38788;DHT22;24536;45.488;12.238;2023-04-06T09:17:24;15.10;44.20
38788;DHT22;24536;45.488;12.238;2023-04-06T09:19:50;15.20;44.70
38788;DHT22;24536;45.488;12.238;2023-04-06T09:24:53;15.40;43.10
38788;DHT22;24536;45.488;12.238;2023-04-06T09:27:32;15.50;43.60
38788;DHT22;24536;45.488;12.238;2023-04-06T09:30:09;15.60;44.40
38788;DHT22;24536;45.488;12.238;2023-04-06T09:32:48;15.80;45.40
38788;DHT22;24536;45.488;12.238;2023-04-06T09:35:15;15.90;44.10
38788;DHT22;24536;45.488;12.238;2023-04-06T09:37:45;16.00;43.30
38788;DHT22;24536;45.488;12.238;2023-04-06T09:40:12;16.10;43.60
38788;DHT22;24536;45.488;12.238;2023-04-06T09:42:41;16.30;42.10
38788;DHT22;24536;45.488;12.238;2023-04-06T09:45:08;16.30;40.30
38788;DHT22;24536;45.488;12.238;2023-04-06T09:47:36;16.30;41.40
38788;DHT22;24536;45.488;12.238;2023-04-06T09:50:02;16.40;41.90
38788;DHT22;24536;45.488;12.238;2023-04-06T09:52:48;16.60;42.00
38788;DHT22;24536;45.488;12.238;2023-04-06T09:55:40;16.90;41.70
38788;DHT22;24536;45.488;12.238;2023-04-06T09:58:09;17.00;41.20
38788;DHT22;24536;45.488;12.238;2023-04-06T10:01:26;17.30;40.30
38788;DHT22;24536;45.488;12.238;2023-04-06T10:06:37;17.40;40.30
38788;DHT22;24536;45.488;12.238;2023-04-06T10:09:04;17.50;40.40
38788;DHT22;24536;45.488;12.238;2023-04-06T10:11:31;17.60;40.60
38788;DHT22;24536;45.488;12.238;2023-04-06T10:13:57;17.70;40.60
38788;DHT22;24536;45.488;12.238;2023-04-06T10:16:23;17.80;40.20
38788;DHT22;24536;45.488;12.238;2023-04-06T10:18:58;17.90;40.00
38788;DHT22;24536;45.488;12.238;2023-04-06T10:21:28;18.10;40.00
38788;DHT22;24536;45.488;12.238;2023-04-06T10:23:58;18.20;39.50
38788;DHT22;24536;45.488;12.238;2023-04-06T10:26:25;18.30;39.80
38788;DHT22;24536;45.488;12.238;2023-04-06T10:28:51;18.50;38.80
38788;DHT22;24536;45.488;12.238;2023-04-06T10:31:25;18.50;39.10
38788;DHT22;24536;45.488;12.238;2023-04-06T10:34:09;18.40;39.50
38788;DHT22;24536;45.488;12.238;2023-04-06T10:36:35;18.40;39.00
38788;DHT22;24536;45.488;12.238;2023-04-06T10:39:06;18.50;39.60
38788;DHT22;24536;45.488;12.238;2023-04-06T10:41:50;18.70;37.80
38788;DHT22;24536;45.488;12.238;2023-04-06T10:44:24;18.70;37.90
38788;DHT22;24536;45.488;12.238;2023-04-06T10:46:57;18.70;38.60
38788;DHT22;24536;45.488;12.238;2023-04-06T10:49:24;18.80;38.30
38788;DHT22;24536;45.488;12.238;2023-04-06T10:51:54;19.00;36.90
38788;DHT22;24536;45.488;12.238;2023-04-06T10:54:21;18.90;37.30
38788;DHT22;24536;45.488;12.238;2023-04-06T10:56:49;18.90;37.20
38788;DHT22;24536;45.488;12.238;2023-04-06T10:59:19;18.90;37.00
38788;DHT22;24536;45.488;12.238;2023-04-06T11:01:45;19.00;37.10
38788;DHT22;24536;45.488;12.238;2023-04-06T11:04:19;19.20;37.30
38788;DHT22;24536;45.488;12.238;2023-04-06T11:06:48;19.30;36.80
38788;DHT22;24536;45.488;12.238;2023-04-06T11:09:29;19.50;36.30
38788;DHT22;24536;45.488;12.238;2023-04-06T11:11:55;19.50;37.40
38788;DHT22;24536;45.488;12.238;2023-04-06T11:14:22;19.60;37.60
38788;DHT22;24536;45.488;12.238;2023-04-06T11:16:49;19.70;37.60
38788;DHT22;24536;45.488;12.238;2023-04-06T11:19:15;19.90;37.30
38788;DHT22;24536;45.488;12.238;2023-04-06T11:21:43;20.30;36.50
38788;DHT22;24536;45.488;12.238;2023-04-06T11:24:10;20.30;37.00
38788;DHT22;24536;45.488;12.238;2023-04-06T11:26:46;20.50;37.30
38788;DHT22;24536;45.488;12.238;2023-04-06T11:29:23;20.80;36.80
38788;DHT22;24536;45.488;12.238;2023-04-06T11:32:04;20.90;36.20
38788;DHT22;24536;45.488;12.238;2023-04-06T11:34:39;21.50;35.10
38788;DHT22;24536;45.488;12.238;2023-04-06T11:37:11;21.70;35.50
38788;DHT22;24536;45.488;12.238;2023-04-06T11:39:54;22.80;34.60
38788;DHT22;24536;45.488;12.238;2023-04-06T11:42:27;24.10;33.30
38788;DHT22;24536;45.488;12.238;2023-04-06T11:45:00;26.00;30.30
38788;DHT22;24536;45.488;12.238;2023-04-06T11:47:36;26.60;30.00
38788;DHT22;24536;45.488;12.238;2023-04-06T11:50:09;26.90;30.20
38788;DHT22;24536;45.488;12.238;2023-04-06T11:52:35;27.50;29.70
38788;DHT22;24536;45.488;12.238;2023-04-06T11:55:14;28.00;28.90
38788;DHT22;24536;45.488;12.238;2023-04-06T11:57:41;28.10;28.50
38788;DHT22;24536;45.488;12.238;2023-04-06T12:00:08;28.20;28.40
38788;DHT22;24536;45.488;12.238;2023-04-06T12:02:35;28.30;29.00
38788;DHT22;24536;45.488;12.238;2023-04-06T12:05:02;28.50;28.50
38788;DHT22;24536;45.488;12.238;2023-04-06T12:07:29;28.60;28.20
38788;DHT22;24536;45.488;12.238;2023-04-06T12:09:55;28.60;28.50
38788;DHT22;24536;45.488;12.238;2023-04-06T12:12:21;28.50;28.50
38788;DHT22;24536;45.488;12.238;2023-04-06T12:14:49;28.20;28.50
38788;DHT22;24536;45.488;12.238;2023-04-06T12:17:20;28.00;28.50
38788;DHT22;24536;45.488;12.238;2023-04-06T12:19:46;27.90;28.40
38788;DHT22;24536;45.488;12.238;2023-04-06T12:22:12;27.80;28.50
38788;DHT22;24536;45.488;12.238;2023-04-06T12:24:38;27.80;28.60
38788;DHT22;24536;45.488;12.238;2023-04-06T12:27:04;27.80;28.30
38788;DHT22;24536;45.488;12.238;2023-04-06T12:29:30;27.90;28.50
38788;DHT22;24536;45.488;12.238;2023-04-06T12:31:55;27.90;28.70
38788;DHT22;24536;45.488;12.238;2023-04-06T12:34:21;28.00;28.30
38788;DHT22;24536;45.488;12.238;2023-04-06T12:36:47;28.20;28.70
38788;DHT22;24536;45.488;12.238;2023-04-06T12:39:13;28.40;28.70
38788;DHT22;24536;45.488;12.238;2023-04-06T12:41:39;28.70;28.70
38788;DHT22;24536;45.488;12.238;2023-04-06T12:44:07;28.90;28.10
38788;DHT22;24536;45.488;12.238;2023-04-06T12:46:32;29.10;27.70
38788;DHT22;24536;45.488;12.238;2023-04-06T12:48:58;29.10;27.80
38788;DHT22;24536;45.488;12.238;2023-04-06T12:51:27;29.20;28.00
38788;DHT22;24536;45.488;12.238;2023-04-06T12:53:53;29.20;27.70
38788;DHT22;24536;45.488;12.238;2023-04-06T12:56:19;29.30;28.10
38788;DHT22;24536;45.488;12.238;2023-04-06T12:58:46;29.50;27.80
38788;DHT22;24536;45.488;12.238;2023-04-06T13:01:13;29.50;27.60
38788;DHT22;24536;45.488;12.238;2023-04-06T13:03:39;29.50;27.70
38788;DHT22;24536;45.488;12.238;2023-04-06T13:06:05;29.50;27.30
38788;DHT22;24536;45.488;12.238;2023-04-06T13:08:31;29.30;27.10
38788;DHT22;24536;45.488;12.238;2023-04-06T13:10:57;28.90;27.20
38788;DHT22;24536;45.488;12.238;2023-04-06T13:13:27;28.30;27.00
38788;DHT22;24536;45.488;12.238;2023-04-06T13:15:54;27.50;27.70
38788;DHT22;24536;45.488;12.238;2023-04-06T13:18:21;26.50;27.40
38788;DHT22;24536;45.488;12.238;2023-04-06T13:20:48;25.80;28.60
38788;DHT22;24536;45.488;12.238;2023-04-06T13:23:14;25.10;28.90
38788;DHT22;24536;45.488;12.238;2023-04-06T13:25:40;24.40;29.70
38788;DHT22;24536;45.488;12.238;2023-04-06T13:28:06;23.20;30.20
38788;DHT22;24536;45.488;12.238;2023-04-06T13:30:32;23.10;30.70
38788;DHT22;24536;45.488;12.238;2023-04-06T13:32:58;22.70;32.30
38788;DHT22;24536;45.488;12.238;2023-04-06T13:35:23;21.60;32.30
38788;DHT22;24536;45.488;12.238;2023-04-06T13:37:49;21.40;33.00
38788;DHT22;24536;45.488;12.238;2023-04-06T13:40:18;21.10;33.20
38788;DHT22;24536;45.488;12.238;2023-04-06T13:42:43;20.80;33.90
38788;DHT22;24536;45.488;12.238;2023-04-06T13:45:10;20.40;34.40
38788;DHT22;24536;45.488;12.238;2023-04-06T13:47:36;20.20;35.50
38788;DHT22;24536;45.488;12.238;2023-04-06T13:50:02;20.10;35.30
38788;DHT22;24536;45.488;12.238;2023-04-06T13:52:29;19.90;35.50
38788;DHT22;24536;45.488;12.238;2023-04-06T13:54:55;19.90;36.10
38788;DHT22;24536;45.488;12.238;2023-04-06T13:57:20;19.80;36.20
38788;DHT22;24536;45.488;12.238;2023-04-06T13:59:46;19.70;36.60
38788;DHT22;24536;45.488;12.238;2023-04-06T14:02:12;19.60;36.90
38788;DHT22;24536;45.488;12.238;2023-04-06T14:09:33;19.30;37.40
38788;DHT22;24536;45.488;12.238;2023-04-06T14:11:59;19.20;37.60
38788;DHT22;24536;45.488;12.238;2023-04-06T14:14:25;19.10;38.20
38788;DHT22;24536;45.488;12.238;2023-04-06T14:16:51;19.00;38.30
38788;DHT22;24536;45.488;12.238;2023-04-06T14:21:44;18.90;38.60
38788;DHT22;24536;45.488;12.238;2023-04-06T14:24:11;18.80;39.00
38788;DHT22;24536;45.488;12.238;2023-04-06T14:26:38;18.70;39.60
38788;DHT22;24536;45.488;12.238;2023-04-06T14:29:04;18.60;39.40
38788;DHT22;24536;45.488;12.238;2023-04-06T14:31:31;18.50;39.90
38788;DHT22;24536;45.488;12.238;2023-04-06T14:33:57;18.40;40.00
38788;DHT22;24536;45.488;12.238;2023-04-06T14:36:23;18.30;40.20
38788;DHT22;24536;45.488;12.238;2023-04-06T14:38:49;18.10;40.50
38788;DHT22;24536;45.488;12.238;2023-04-06T14:41:16;18.10;40.50
38788;DHT22;24536;45.488;12.238;2023-04-06T14:43:42;18.00;40.30
38788;DHT22;24536;45.488;12.238;2023-04-06T14:46:08;18.10;40.40
38788;DHT22;24536;45.488;12.238;2023-04-06T14:48:35;18.00;40.60
38788;DHT22;24536;45.488;12.238;2023-04-06T14:53:27;18.00;40.70
38788;DHT22;24536;45.488;12.238;2023-04-06T14:58:20;17.90;40.80
38788;DHT22;24536;45.488;12.238;2023-04-06T15:00:46;17.90;41.30
38788;DHT22;24536;45.488;12.238;2023-04-06T15:03:12;17.80;41.10
38788;DHT22;24536;45.488;12.238;2023-04-06T15:05:38;17.70;41.10
38788;DHT22;24536;45.488;12.238;2023-04-06T15:08:04;17.70;41.30
38788;DHT22;24536;45.488;12.238;2023-04-06T15:10:33;17.60;41.80
38788;DHT22;24536;45.488;12.238;2023-04-06T15:12:59;17.60;41.90
38788;DHT22;24536;45.488;12.238;2023-04-06T15:15:26;17.50;42.40
38788;DHT22;24536;45.488;12.238;2023-04-06T15:17:51;17.50;42.90
38788;DHT22;24536;45.488;12.238;2023-04-06T15:20:17;17.50;43.30
38788;DHT22;24536;45.488;12.238;2023-04-06T15:22:44;17.40;43.10
38788;DHT22;24536;45.488;12.238;2023-04-06T15:25:10;17.30;43.10
38788;DHT22;24536;45.488;12.238;2023-04-06T15:27:35;17.30;43.30
38788;DHT22;24536;45.488;12.238;2023-04-06T15:30:01;17.30;43.60
38788;DHT22;24536;45.488;12.238;2023-04-06T15:32:27;17.30;44.00
38788;DHT22;24536;45.488;12.238;2023-04-06T15:34:53;17.20;44.00
38788;DHT22;24536;45.488;12.238;2023-04-06T15:37:21;17.20;44.20
38788;DHT22;24536;45.488;12.238;2023-04-06T15:39:46;17.10;45.90
38788;DHT22;24536;45.488;12.238;2023-04-06T15:42:12;17.00;44.40
38788;DHT22;24536;45.488;12.238;2023-04-06T15:44:38;17.00;44.60
38788;DHT22;24536;45.488;12.238;2023-04-06T15:47:03;17.00;44.90
38788;DHT22;24536;45.488;12.238;2023-04-06T15:49:29;17.00;45.40
38788;DHT22;24536;45.488;12.238;2023-04-06T15:51:55;17.00;45.60
38788;DHT22;24536;45.488;12.238;2023-04-06T15:54:21;16.90;45.30
38788;DHT22;24536;45.488;12.238;2023-04-06T15:56:47;16.90;46.00
38788;DHT22;24536;45.488;12.238;2023-04-06T15:59:13;16.80;46.10
38788;DHT22;24536;45.488;12.238;2023-04-06T16:01:39;16.80;45.80
38788;DHT22;24536;45.488;12.238;2023-04-06T16:04:07;16.70;46.10
38788;DHT22;24536;45.488;12.238;2023-04-06T16:06:34;16.70;46.70